Main page
METAR-TAF:

METAR-TAF

Airports :

Léopold Sédar Senghor International Airport

Dakar, Senegal

latitude: 14-44N, longitude: 017-30W, elevation: 27 m

Current weather observation

The report was made 2 hours and 0 minutes ago, at 06:00 UTC
Wind 12 kt from the North/Northeast
Temperature 19°C
Humidity 60%
Pressure 1017 hPa
Visibility: 8000 m
widespread dust

METAR: GOOY 200600Z 02012KT 8000 DU NSC 19/11 Q1017

Time: 08:00 (08:00 UTC)

Forecast

The report was made 2 hours and 30 minutes ago, at 05:30 UTC
Forecast valid from 20 at 06 UTC to 21 at 12 UTC
Wind 12 kt from the North/Northeast
Visibility: 6000 m

TAF: GOOY 200530Z 2006/2112 02012KT 6000 NSC

Weather observations and forecasts of more than 4000 airports (METAR and TAF reports).

The available stations are represented by yellow and red dots on the map.

Hover mouse over dot to see the name of the station.

Then click to see weather observations and forecasts.

To change the map : click on the green buttons with a black cross to zoom in, on the green button with a dash to zoom out, or on the green arrows for adjacent maps.


METAR-TAF: